createdAt,value
2023-02-28T00:04:17.732Z,12
2023-02-28T00:09:17.735Z,11.9
2023-02-28T00:14:17.795Z,11.9
2023-02-28T00:19:17.783Z,11.8
2023-02-28T00:24:17.808Z,11.8
2023-02-28T00:29:17.933Z,11.8
2023-02-28T00:34:18.094Z,11.7
2023-02-28T00:39:18.054Z,11.7
2023-02-28T00:44:18.049Z,11.7
2023-02-28T00:49:17.949Z,11.7
2023-02-28T00:54:18.037Z,11.6
2023-02-28T00:59:18.170Z,11.6
2023-02-28T01:04:18.134Z,11.5
2023-02-28T01:09:18.095Z,11.5
2023-02-28T01:14:18.249Z,11.4
2023-02-28T01:19:18.235Z,11.4
2023-02-28T01:24:18.227Z,11.4
2023-02-28T01:29:18.374Z,11.4
2023-02-28T01:34:18.626Z,11.3
2023-02-28T01:39:18.241Z,11.3
2023-02-28T01:44:18.611Z,11.3
2023-02-28T01:49:18.534Z,11.2
2023-02-28T01:54:18.719Z,11.1
2023-02-28T01:59:18.393Z,11.1
2023-02-28T02:04:18.497Z,11.1
2023-02-28T02:09:18.376Z,11
2023-02-28T02:14:18.437Z,10.9
2023-02-28T02:19:18.639Z,10.9
2023-02-28T02:24:18.503Z,10.8
2023-02-28T02:29:18.450Z,10.7
2023-02-28T02:34:18.512Z,10.7
2023-02-28T02:39:18.434Z,10.6
2023-02-28T02:44:18.516Z,10.6
2023-02-28T02:49:18.459Z,10.5
2023-02-28T02:54:18.507Z,10.4
2023-02-28T02:59:18.463Z,10.4
2023-02-28T03:04:18.466Z,10.3
2023-02-28T03:09:18.475Z,10.3
2023-02-28T03:14:18.504Z,10.2
2023-02-28T03:19:18.460Z,10.2
2023-02-28T03:24:18.469Z,10.1
2023-02-28T03:29:18.472Z,10.1
2023-02-28T03:34:18.615Z,10
2023-02-28T03:39:18.530Z,9.9
2023-02-28T03:44:18.715Z,9.9
2023-02-28T03:49:18.601Z,9.9
2023-02-28T03:54:18.623Z,9.8
2023-02-28T03:59:18.747Z,9.7
2023-02-28T04:04:18.695Z,9.7
2023-02-28T04:09:18.559Z,9.6
2023-02-28T04:14:18.622Z,9.6
2023-02-28T04:19:18.563Z,9.5
2023-02-28T04:24:18.604Z,9.4
2023-02-28T04:29:18.551Z,9.4
2023-02-28T04:34:18.612Z,9.4
2023-02-28T04:39:18.585Z,9.3
2023-02-28T04:44:18.708Z,9.3
2023-02-28T04:49:18.566Z,9.2
2023-02-28T04:54:18.596Z,9.2
2023-02-28T04:59:22.041Z,9.1
2023-02-28T05:04:18.568Z,9
2023-02-28T05:09:18.666Z,9
2023-02-28T05:14:18.628Z,8.9
2023-02-28T05:19:18.578Z,8.8
2023-02-28T05:24:18.971Z,8.8
2023-02-28T05:29:18.713Z,8.7
2023-02-28T05:34:18.709Z,8.7
2023-02-28T05:39:18.674Z,8.7
2023-02-28T05:44:18.699Z,8.7
2023-02-28T05:49:18.669Z,8.6
2023-02-28T05:54:18.698Z,8.6
2023-02-28T05:59:18.658Z,8.6
2023-02-28T06:04:30.619Z,8.5
2023-02-28T06:09:18.710Z,8.5
2023-02-28T06:14:18.750Z,8.5
2023-02-28T06:19:18.788Z,8.4
2023-02-28T06:24:18.722Z,8.4
2023-02-28T06:29:18.879Z,8.4
2023-02-28T06:34:18.719Z,8.4
2023-02-28T06:39:18.695Z,8.4
2023-02-28T06:44:19.340Z,8.4
2023-02-28T06:49:18.770Z,8.4
2023-02-28T06:54:18.892Z,8.4
2023-02-28T06:59:18.746Z,8.4
2023-02-28T07:04:18.826Z,8.4
2023-02-28T07:09:18.764Z,8.5
2023-02-28T07:14:18.806Z,8.5
2023-02-28T07:19:18.879Z,8.6
2023-02-28T07:24:19.005Z,8.8
2023-02-28T07:29:18.988Z,8.9
2023-02-28T07:34:18.966Z,8.9
2023-02-28T07:39:19.040Z,9
2023-02-28T07:44:19.744Z,9.1
2023-02-28T07:49:19.063Z,9.3
2023-02-28T07:54:19.237Z,9.5
2023-02-28T07:59:19.072Z,9.6
2023-02-28T08:04:19.067Z,9.8
2023-02-28T08:09:19.141Z,10
2023-02-28T08:14:19.142Z,10.2
2023-02-28T08:19:19.124Z,10.4
2023-02-28T08:24:19.141Z,10.6
2023-02-28T08:29:19.162Z,10.8
2023-02-28T08:34:19.256Z,11
2023-02-28T08:39:19.211Z,11.2
2023-02-28T08:44:19.261Z,11.4
2023-02-28T08:49:19.254Z,11.6
2023-02-28T08:54:19.265Z,11.7
2023-02-28T08:59:19.319Z,11.9
2023-02-28T09:04:20.071Z,12
2023-02-28T09:09:19.716Z,12.2
2023-02-28T09:14:19.358Z,12.4
2023-02-28T09:19:19.330Z,12.6
2023-02-28T09:24:19.682Z,12.8
2023-02-28T09:29:19.455Z,13
2023-02-28T09:34:19.457Z,13.2
2023-02-28T09:39:19.542Z,13.3
2023-02-28T09:44:19.448Z,13.5
2023-02-28T09:49:19.543Z,13.6
2023-02-28T09:54:19.381Z,13.8
2023-02-28T09:59:19.519Z,13.9
2023-02-28T10:04:19.716Z,14.1
2023-02-28T10:09:19.377Z,14.3
2023-02-28T10:14:19.414Z,14.5
2023-02-28T10:19:19.686Z,14.6
2023-02-28T10:24:19.440Z,14.7
2023-02-28T10:29:19.353Z,14.8
2023-02-28T10:34:19.385Z,14.9
2023-02-28T10:39:19.357Z,15
2023-02-28T10:44:20.765Z,15.2
2023-02-28T10:49:19.353Z,15.4
2023-02-28T10:54:19.388Z,15.4
2023-02-28T10:59:19.338Z,15.6
2023-02-28T11:04:19.433Z,15.7
2023-02-28T11:09:19.345Z,15.9
2023-02-28T11:14:19.356Z,16
2023-02-28T11:19:19.334Z,16.1
2023-02-28T11:24:19.341Z,16.3
2023-02-28T11:29:19.462Z,16.5
2023-02-28T11:34:19.370Z,16.7
2023-02-28T11:39:19.333Z,17
2023-02-28T11:44:19.353Z,17.2
2023-02-28T11:49:19.426Z,17.3
2023-02-28T11:54:19.375Z,17.5
2023-02-28T11:59:19.352Z,17.7
2023-02-28T12:04:19.335Z,17.7
2023-02-28T12:09:19.360Z,18.9
2023-02-28T12:14:19.369Z,19.7
2023-02-28T12:19:19.364Z,19.8
2023-02-28T12:24:19.324Z,19.6
2023-02-28T12:29:19.333Z,19.4
2023-02-28T12:34:19.624Z,19.2
2023-02-28T12:39:19.326Z,19.1
2023-02-28T12:44:19.447Z,19
2023-02-28T12:49:19.377Z,19
2023-02-28T12:54:19.368Z,19
2023-02-28T12:59:19.331Z,18.9
2023-02-28T13:04:19.355Z,18.9
2023-02-28T13:09:19.326Z,19.1
2023-02-28T13:14:19.341Z,19.3
2023-02-28T13:19:19.332Z,19.5
2023-02-28T13:24:19.327Z,19.7
2023-02-28T13:29:19.326Z,19.9
2023-02-28T13:34:19.350Z,19.9
2023-02-28T13:39:19.413Z,20
2023-02-28T13:44:19.342Z,19.9
2023-02-28T13:49:19.316Z,20
2023-02-28T13:54:19.392Z,20.1
2023-02-28T13:59:19.374Z,20.1
2023-02-28T14:04:19.365Z,20.1
2023-02-28T14:09:19.321Z,20.3
2023-02-28T14:14:19.345Z,20.4
2023-02-28T14:19:19.324Z,20.6
2023-02-28T14:24:19.391Z,20.8
2023-02-28T14:29:19.360Z,20.9
2023-02-28T14:34:19.340Z,21
2023-02-28T14:39:19.312Z,21.2
2023-02-28T14:44:19.332Z,21.2
2023-02-28T14:49:19.299Z,21.3
2023-02-28T14:54:19.344Z,21.3
2023-02-28T14:59:19.335Z,21.4
2023-02-28T15:04:19.346Z,21.4
2023-02-28T15:09:19.336Z,21.3
2023-02-28T15:14:19.331Z,21.2
2023-02-28T15:19:19.297Z,20.9
2023-02-28T15:24:19.362Z,20.7
2023-02-28T15:29:19.340Z,20.5
2023-02-28T15:34:19.376Z,20.3
2023-02-28T15:39:19.304Z,20.1
2023-02-28T15:44:19.301Z,19.9
2023-02-28T15:49:19.380Z,19.6
2023-02-28T15:54:19.411Z,19.5
2023-02-28T15:59:19.373Z,19.3
2023-02-28T16:04:19.304Z,19.1
2023-02-28T16:09:19.423Z,18.9
2023-02-28T16:14:19.310Z,18.7
2023-02-28T16:19:19.295Z,18.7
2023-02-28T16:24:19.289Z,18.7
2023-02-28T16:29:19.280Z,18.7
2023-02-28T16:34:19.309Z,18.7
2023-02-28T16:39:19.534Z,19.4
2023-02-28T16:44:19.322Z,19.4
2023-02-28T16:49:19.291Z,19.4
2023-02-28T16:54:19.437Z,19.1
2023-02-28T16:59:19.308Z,18.9
2023-02-28T17:04:19.308Z,18.6
2023-02-28T17:09:19.312Z,18.3
2023-02-28T17:14:19.463Z,18
2023-02-28T17:19:19.306Z,17.8
2023-02-28T17:24:30.128Z,17.5
2023-02-28T17:29:19.507Z,17.2
2023-02-28T17:34:19.643Z,17
2023-02-28T17:39:19.486Z,16.9
2023-02-28T17:44:27.604Z,16.7
2023-02-28T17:49:19.562Z,16.5
2023-02-28T17:54:19.656Z,16.3
2023-02-28T17:59:19.608Z,16.1
2023-02-28T18:04:19.590Z,15.9
2023-02-28T18:09:19.962Z,15.7
2023-02-28T18:14:19.601Z,15.5
2023-02-28T18:19:19.629Z,15.3
2023-02-28T18:24:19.574Z,15.2
2023-02-28T18:29:19.777Z,15
2023-02-28T18:34:19.593Z,14.8
2023-02-28T18:39:20.047Z,14.6
2023-02-28T18:44:21.022Z,14.5
2023-02-28T18:49:19.779Z,14.3
2023-02-28T18:54:19.630Z,14.1
2023-02-28T18:59:19.567Z,14
2023-02-28T19:04:19.614Z,13.9
2023-02-28T19:09:19.965Z,13.7
2023-02-28T19:14:19.572Z,13.6
2023-02-28T19:19:20.016Z,13.5
2023-02-28T19:24:20.451Z,13.3
2023-02-28T19:29:19.764Z,13.2
2023-02-28T19:34:20.138Z,13.1
2023-02-28T19:39:19.834Z,11.7
2023-02-28T19:44:19.918Z,9.6
2023-02-28T19:49:19.670Z,8.2
2023-02-28T19:54:20.113Z,7.4
2023-02-28T19:59:21.579Z,6.8
2023-02-28T20:04:19.814Z,6.4
2023-02-28T20:09:20.025Z,6.1
2023-02-28T20:14:19.826Z,5.8
2023-02-28T20:23:48.903Z,5.3
2023-02-28T20:28:48.903Z,5.2
2023-02-28T20:33:48.914Z,5.1
2023-02-28T20:38:48.951Z,4.9
2023-02-28T20:43:48.828Z,4.8
2023-02-28T20:48:48.848Z,4.7
2023-02-28T20:53:48.855Z,4.5
2023-02-28T20:58:48.859Z,4.4
2023-02-28T21:03:48.841Z,4.2
2023-02-28T21:08:48.876Z,4.1
2023-02-28T21:13:48.858Z,4
2023-02-28T21:18:48.875Z,3.9
2023-02-28T21:23:48.835Z,3.9
2023-02-28T21:28:48.837Z,3.8
2023-02-28T21:33:48.859Z,3.7
2023-02-28T21:38:48.872Z,3.6
2023-02-28T21:43:48.840Z,3.5
2023-02-28T21:48:48.846Z,3.5
2023-02-28T21:53:48.859Z,3.4
2023-02-28T21:58:48.826Z,3.3
2023-02-28T22:03:48.822Z,3.3
2023-02-28T22:08:48.816Z,3.2
2023-02-28T22:13:48.818Z,3.1
2023-02-28T22:18:48.827Z,3.1
2023-02-28T22:23:48.808Z,3
2023-02-28T22:28:48.811Z,2.9
2023-02-28T22:33:48.909Z,2.8
2023-02-28T22:38:48.793Z,2.8
2023-02-28T22:43:48.795Z,2.7
2023-02-28T22:48:48.824Z,2.6
2023-02-28T22:53:48.806Z,2.5
2023-02-28T22:58:48.797Z,2.4
2023-02-28T23:03:48.869Z,2.4
2023-02-28T23:08:48.822Z,2.4
2023-02-28T23:13:48.821Z,2.3
2023-02-28T23:18:48.838Z,2.2
2023-02-28T23:23:48.796Z,2.1
2023-02-28T23:28:48.824Z,2.1
2023-02-28T23:33:48.902Z,2
2023-02-28T23:38:48.790Z,1.9
2023-02-28T23:43:48.774Z,1.8
2023-02-28T23:48:48.789Z,1.8
2023-02-28T23:53:48.813Z,1.8
2023-02-28T23:58:48.791Z,1.8
